EST,Max TemperatureF,Mean TemperatureF,Min TemperatureF,Max Dew PointF,MeanDew PointF,Min DewpointF,Max Humidity, Mean Humidity, Min Humidity, Max Sea Level PressureIn, Mean Sea Level PressureIn, Min Sea Level PressureIn, Max VisibilityMiles, Mean VisibilityMiles, Min VisibilityMiles, Max Wind SpeedMPH, Mean Wind SpeedMPH, Max Gust SpeedMPH,PrecipitationIn, CloudCover, Events, WindDirDegrees
2012-12-1,68,54,39,50,44,37,100,73,45,30.38,30.31,30.26,10,8,0,12,2,17,0.00,5,Fog,176
2012-12-2,71,56,41,52,47,41,100,74,47,30.35,30.29,30.23,10,10,10,15,4,21,0.00,4,,175
2012-12-3,72,57,42,52,47,41,100,72,44,30.32,30.26,30.20,10,10,10,16,2,21,0.00,4,Fog,0
2012-12-4,71,60,48,61,53,48,100,77,53,30.29,30.22,30.16,10,9,1,14,3,17,0.23,7,Fog-Rain,194
2012-12-5,63,57,51,61,50,40,100,73,46,30.27,30.19,30.14,10,10,7,15,5,20,0.03,7,Fog-Rain,8
2012-12-6,64,55,45,45,42,36,86,69,52,30.18,30.13,30.08,10,10,10,10,3,15,T,7,,62
2012-12-7,62,55,47,52,48,44,93,79,65,30.10,30.04,29.96,10,10,10,8,2,12,0.00,7,,169
2012-12-8,70,62,54,59,54,50,93,77,61,30.03,29.99,29.94,10,10,7,12,4,16,0.00,7,,175
2012-12-9,72,66,59,61,58,54,100,79,57,30.06,30.00,29.90,10,8,2,17,6,22,0.01,7,,175
2012-12-10,64,52,40,60,54,33,100,85,70,29.96,29.80,29.67,10,6,0,29,8,37,0.91,8,Rain-Thunderstorm,202
2012-12-11,43,39,35,32,30,29,89,75,60,30.22,30.10,29.96,10,10,7,15,9,18,0.00,6,,355
2012-12-12,51,43,35,31,27,20,75,55,34,30.30,30.27,30.23,10,10,10,20,9,23,0.00,5,,8
2012-12-13,56,43,29,35,31,27,92,67,41,30.41,30.35,30.30,10,10,10,9,1,12,0.00,0,,11
2012-12-14,58,43,28,39,33,27,100,72,43,30.41,30.33,30.22,10,8,0,5,1,9,0.00,4,Fog,323
2012-12-15,59,50,41,52,43,38,93,75,57,30.21,30.11,30.01,10,9,2,16,4,22,0.05,7,Rain,182
2012-12-16,57,54,51,56,53,50,100,95,89,30.02,29.93,29.83,10,5,2,20,4,25,1.30,8,Rain-Thunderstorm,166
2012-12-17,62,58,53,58,54,52,100,88,75,29.84,29.75,29.66,10,8,1,16,6,21,0.01,7,Rain,186
2012-12-18,61,52,42,49,37,27,80,54,27,30.00,29.91,29.73,10,10,10,20,5,25,0.00,2,,257
2012-12-19,65,51,36,46,41,35,100,74,48,30.12,30.04,30.00,10,10,10,9,1,12,0.00,3,,183
2012-12-20,56,49,42,52,43,27,100,77,53,30.00,29.79,29.62,10,6,2,31,10,41,0.89,8,Rain,197
2012-12-21,44,39,34,25,19,14,56,45,33,30.24,30.06,29.91,10,10,10,28,14,37,0.00,3,,284
2012-12-22,50,38,25,27,18,13,78,52,26,30.37,30.27,30.21,10,10,10,17,3,23,0.00,0,,322
2012-12-23,55,41,26,43,29,24,92,67,41,30.20,30.12,30.01,10,10,6,9,3,12,0.12,5,Rain,180
2012-12-24,53,48,43,52,48,42,100,96,92,30.00,29.91,29.84,7,2,0,10,1,13,0.51,8,Fog-Rain,342
2012-12-25,49,47,44,48,46,44,100,97,93,30.04,29.93,29.70,3,1,0,16,5,20,0.90,8,Fog-Rain,11
2012-12-26,54,45,35,52,40,29,100,85,70,30.05,29.65,29.43,10,8,3,26,12,36,0.21,8,Rain,256
2012-12-27,39,36,33,29,28,27,82,73,64,30.17,30.12,30.06,10,10,9,17,8,21,0.00,7,,352
2012-12-28,42,37,32,40,32,28,93,79,65,30.16,30.03,29.82,10,8,3,15,4,24,0.32,7,Rain,18
2012-12-29,43,39,34,41,35,24,100,82,64,30.31,29.99,29.80,10,8,2,21,8,25,0.08,8,Rain-Snow,268
2012-12-30,43,36,28,26,22,19,92,68,43,30.53,30.44,30.32,10,10,10,18,7,23,0.00,4,,344
2012-12-31,49,38,27,33,28,26,92,69,45,30.40,30.29,30.11,10,10,10,10,2,12,0.00,7,,186